Flight Track Log - Related Links

Times and Time Zones

All times are in EDT time to prevent confusion due to time zone crossing. See the ASQ6171 flight status page for this flight to view local times or setup timezone preferences in your user account.

Time Position Orientation Groundspeed Altitude Reporting Facility
EDT Latitude Longitude Course Direction KTS MPH feet Rate Location/Type
Thu 06:02:06 AM 45.3167 -75.6167 251° West 170 196 1,400  Level Montreal Center
Thu 06:03:06 AM 45.3500 -75.5667 47° Northeast 200 230 3,400 2,250 Climbing Montreal Center
Thu 06:04:06 AM 45.4000 -75.5333 25° Northeast 230 265 5,900 2,100 Climbing Montreal Center
Thu 06:05:06 AM 45.4000 -75.6333 270° West 240 276 7,600 1,800 Climbing Montreal Center
Thu 06:06:00 AM 45.1027 -76.4924 251° West  Level FlightAware Approximate
Thu 06:06:06 AM 45.4167 -75.7500 282° West 280 322 9,500  Level Montreal Center
Thu 06:07:00 AM 45.0696 -76.6315 251° West  Level FlightAware Approximate
Thu 06:07:06 AM 45.4000 -75.8500 257° West 290 334 11,000  Level Montreal Center
Thu 06:08:06 AM 45.4000 -76.0000 270° West 320 368 12,800 1,850 Climbing Montreal Center
Thu 06:09:06 AM 45.3833 -76.1167 259° West 320 368 14,700 1,900 Climbing Montreal Center
Thu 06:10:06 AM 45.3667 -76.2500 260° West 320 368 16,600 1,750 Climbing Montreal Center
Thu 06:11:06 AM 45.3500 -76.3667 259° West 320 368 18,200 1,700 Climbing Montreal Center
Thu 06:12:06 AM 45.3333 -76.5000 260° West 330 380 20,000 1,750 Climbing Montreal Center
Thu 06:13:06 AM 45.3000 -76.6167 248° West 330 380 21,700 1,700 Climbing Montreal Center
Thu 06:14:06 AM 45.2667 -76.7500 250° West 330 380 23,400 1,600 Climbing Montreal Center
Thu 06:15:06 AM 45.2333 -76.8667 248° West 340 391 24,900 1,400 Climbing Montreal Center
Thu 06:16:06 AM 45.2167 -76.9833 259° West 340 391 26,200 1,300 Climbing Montreal Center
Thu 06:17:06 AM 45.1833 -77.1333 253° West 350 403 27,500 1,200 Climbing Montreal Center
Thu 06:18:06 AM 45.1500 -77.2500 248° West 350 403 28,600 900 Climbing Montreal Center
Thu 06:19:06 AM 45.1167 -77.4000 253° West 360 414 29,300 700 Climbing Montreal Center
Thu 06:20:06 AM 45.0833 -77.5333 251° West 380 437 30,000 650 Climbing Montreal Center
Thu 06:21:06 AM 45.0500 -77.7000 254° West 410 472 30,600 659 Climbing Montreal Center
Thu 06:21:28 AM 45.0333 -77.7167 215° Southwest 410 472 30,900 951 Climbing Toronto Center
Thu 06:22:28 AM 45.0000 -77.8833 254° West 410 472 31,900 950 Climbing Toronto Center
Thu 06:23:28 AM 44.9500 -78.0333 245° Southwest 420 483 32,800 950 Climbing Toronto Center
Thu 06:24:28 AM 44.9167 -78.1667 251° West 420 483 33,800 1,000 Climbing Toronto Center
Thu 06:25:28 AM 44.8667 -78.3333 247° West 420 483 34,800 950 Climbing Toronto Center
Thu 06:26:28 AM 44.8500 -78.5000 262° West 420 483 35,700 600 Climbing Toronto Center
Thu 06:27:28 AM 44.8000 -78.6500 245° Southwest 420 483 36,000 184 Climbing Toronto Center
Thu 06:28:06 AM 44.7667 -78.7667 248° West 420 483 36,000  Level Montreal Center
Thu 06:29:06 AM 44.7167 -78.9333 247° West 430 495 36,000  Level Montreal Center
Thu 06:29:28 AM 44.7000 -78.9500 215° Southwest 430 495 36,000  Level Toronto Center
Thu 06:30:28 AM 44.6500 -79.1167 247° West 430 495 36,000  Level Toronto Center
Thu 06:31:28 AM 44.6000 -79.2500 242° Southwest 430 495 36,000  Level Toronto Center
Thu 06:32:28 AM 44.5333 -79.4000 238° Southwest 430 495 36,000  Level Toronto Center
Thu 06:33:28 AM 44.4833 -79.5667 247° West 430 495 36,000  Level Toronto Center
Thu 06:34:28 AM 44.4333 -79.7000 242° Southwest 430 495 36,000  Level Toronto Center
Thu 06:35:28 AM 44.3667 -79.8500 238° Southwest 430 495 36,000  Level Toronto Center
Thu 06:36:28 AM 44.3167 -80.0000 245° Southwest 430 495 36,000  Level Toronto Center
Thu 06:37:28 AM 44.2667 -80.1500 245° Southwest 430 495 36,000  Level Toronto Center
Thu 06:38:28 AM 44.2000 -80.3000 238° Southwest 430 495 36,000  Level Toronto Center
Thu 06:39:28 AM 44.1500 -80.4500 245° Southwest 430 495 36,000  Level Toronto Center
Thu 06:40:28 AM 44.1000 -80.5833 242° Southwest 430 495 36,000  Level Toronto Center
Thu 06:41:28 AM 44.0333 -80.7500 241° Southwest 430 495 36,000  Level Toronto Center
Thu 06:42:28 AM 43.9667 -80.8833 235° Southwest 430 495 36,000  Level Toronto Center
Thu 06:43:28 AM 43.9167 -81.0167 243° Southwest 420 483 36,000  Level Toronto Center
Thu 06:44:28 AM 43.8667 -81.1833 247° West 410 472 36,000  Level Toronto Center
Thu 06:45:28 AM 43.8167 -81.3000 239° Southwest 410 472 36,000  Level Toronto Center
Thu 06:46:29 AM 43.7500 -81.4333 235° Southwest 400 460 36,000  Level Toronto Center
Thu 06:47:28 AM 43.7000 -81.5667 243° Southwest 400 460 36,000  Level Toronto Center
Thu 06:48:28 AM 43.6500 -81.7000 243° Southwest 400 460 36,000  Level Toronto Center
Thu 06:49:28 AM 43.6000 -81.8500 245° Southwest 410 472 36,000  Level Toronto Center
Thu 06:50:28 AM 43.5333 -81.9833 235° Southwest 410 472 36,000  Level Toronto Center
Thu 06:51:28 AM 43.4833 -82.1333 245° Southwest 410 472 36,000  Level Toronto Center
Thu 06:51:57 AM 43.4678 -82.2050 253° West 414 476 36,000  Level Cleveland Center
Thu 06:52:57 AM 43.4117 -82.3436 241° Southwest 414 476 36,000  Level Cleveland Center
Thu 06:53:28 AM 43.3667 -82.4000 222° Southwest 410 472 36,000  Level Toronto Center
Thu 06:54:28 AM 43.3167 -82.5500 245° Southwest 410 472 36,000 -300 Level Toronto Center
Thu 06:55:28 AM 43.2500 -82.6833 236° Southwest 410 472 35,400 -539 Descending Toronto Center
Thu 06:55:57 AM 43.2442 -82.7547 264° West 414 476 35,200 -539 Descending Cleveland Center
Thu 06:56:57 AM 43.2017 -82.8986 248° West 414 476 34,600 -600 Descending Cleveland Center
Thu 06:57:57 AM 43.1611 -83.0508 250° West 414 476 34,000 -550 Descending Cleveland Center
Thu 06:58:57 AM 43.1203 -83.2000 249° West 414 476 33,500 -550 Descending Cleveland Center
Thu 06:59:57 AM 43.0794 -83.3489 249° West 421 484 32,900 -550 Descending Cleveland Center
Thu 07:00:57 AM 43.0403 -83.4978 250° West 426 490 32,400 -450 Descending Cleveland Center
Thu 07:01:57 AM 42.9969 -83.6433 248° West 426 490 32,000 -200 Descending Cleveland Center
Thu 07:02:57 AM 42.9594 -83.7919 251° West 426 490 32,000  Level Cleveland Center
Thu 07:03:57 AM 42.9469 -83.9444 264° West 413 475 32,000  Level Cleveland Center
Thu 07:04:57 AM 42.9319 -84.0969 262° West 407 468 32,000  Level Cleveland Center
Thu 07:06:49 AM 42.9056 -84.3694 263° West 408 470 32,000  Level Chicago Center
Thu 07:07:50 AM 42.8897 -84.5247 262° West 412 474 32,000  Level Chicago Center
Thu 07:08:51 AM 42.8747 -84.6786 262° West 411 473 32,000  Level Chicago Center
Thu 07:09:52 AM 42.8578 -84.8347 262° West 417 480 32,000  Level Chicago Center
Thu 07:10:52 AM 42.8414 -84.9900 262° West 414 476 32,000  Level Chicago Center
Thu 07:11:53 AM 42.8256 -85.1461 262° West 416 479 32,000  Level Chicago Center
Thu 07:12:54 AM 42.8083 -85.3014 261° West 416 479 32,000  Level Chicago Center
Thu 07:13:55 AM 42.7908 -85.4578 261° West 417 480 32,000 -738 Level Chicago Center
Thu 07:14:56 AM 42.7661 -85.6122 258° West 417 480 30,500 -2,066 Descending Chicago Center
Thu 07:15:57 AM 42.7386 -85.7644 256° West 413 475 27,800 -2,803 Descending Chicago Center
Thu 07:16:58 AM 42.7111 -85.9133 256° West 404 465 24,800 -2,803 Descending Chicago Center
Thu 07:17:59 AM 42.6842 -86.0631 256° West 404 465 22,100 -2,262 Descending Chicago Center
Thu 07:19:00 AM 42.6578 -86.2061 256° West 392 451 20,200 -1,024 Descending Chicago Center
Thu 07:20:02 AM 42.6261 -86.3728 256° West 380 437 20,000 -98 Descending Chicago Center
Thu 07:21:03 AM 42.6003 -86.5103 256° West 377 434 20,000 -1,131 Level Chicago Center
Thu 07:22:04 AM 42.5747 -86.6478 256° West 375 432 17,700 -2,361 Descending Chicago Center
Thu 07:23:05 AM 42.5489 -86.7786 255° West 365 420 15,200 -2,390 Descending Chicago Center
Thu 07:24:07 AM 42.5139 -86.9011 249° West 354 407 12,800 -2,049 Descending Chicago Center
Thu 07:25:08 AM 42.4831 -87.0167 250° West 336 387 11,000 -1,426 Descending Chicago Center
Thu 07:26:09 AM 42.4531 -87.1192 248° West 301 346 9,900 -976 Descending Chicago Center
Thu 07:27:11 AM 42.4083 -87.1994 233° Southwest 279 321 9,000 -439 Descending Chicago Center
Thu 07:28:12 AM 42.3450 -87.2567 214° Southwest 278 320 9,000 -390 Level Chicago Center
Thu 07:29:14 AM 42.2811 -87.3164 215° Southwest 273 314 8,200 -1,024 Descending Chicago Center
Thu 07:30:15 AM 42.2119 -87.3803 214° Southwest 255 293 6,900 -1,082 Descending Chicago Center
Thu 07:31:16 AM 42.1544 -87.4358 216° Southwest 256 295 6,000 -991 Descending Chicago Center
Thu 07:32:10 AM 42.1000 -87.4833 213° Southwest 259 298 5,000 -1,000 Descending Chicago TRACON
Thu 07:33:10 AM 42.0500 -87.5500 225° Southwest 255 293 4,100 -500 Descending Chicago TRACON
Thu 07:34:10 AM 42.0000 -87.6167 225° Southwest 249 287 4,000 -400 Descending Chicago TRACON
Thu 07:35:10 AM 41.9833 -87.7000 255° West 244 281 3,300 -900 Descending Chicago TRACON
Thu 07:36:10 AM 41.9833 -87.7833 270° West 189 217 2,200 -900 Descending Chicago TRACON
Thu 07:37:10 AM 41.9833 -87.8333 270° West 140 161 1,500 -700 Descending Chicago TRACON
Thu 07:40:00 AM 41.9667 -87.9000 217° Southwest  Level FlightAware Approximate

Login

Don't have an account? Register now (free) for customized features, flight alerts, and more!